Terminal Aerodrome Forecast
Issued by NWS

Home | Current Version | Previous Version | Text Only | Print | Product List | Glossary On
Versions: 1 2 3 4 5 6 7 8 9 10 11 12 13 14 15 16 17 18 19 20 21 22 23 24 25 26 27 28 29 30 31 32 33 34
000
FTUS45 KGJT 260523
TAFVEL
TAF
KVEL 260523Z 2606/2706 31004KT 5SM -RA BR FEW020 BKN030
     FM260800 30005KT P6SM OVC040
     FM261400 25003KT P6SM -RA OVC030
     FM261800 02010G20KT P6SM VCSH SCT020 OVC040
     FM270200 32007KT P6SM VCSH SCT040 BKN070=

USA.gov is the U.S. government's official web portal to all federal, state and local government web resources and services.